sensor_id;sensor_type;location;lat;lon;timestamp;P1;durP1;ratioP1;P2;durP2;ratioP2
29700;SDS011;57917;51.380;-0.176;2023-11-21T00:02:42;0.80;;;0.80;;
29700;SDS011;57917;51.380;-0.176;2023-11-21T00:08:29;0.70;;;0.70;;
29700;SDS011;57917;51.380;-0.176;2023-11-21T00:14:32;1.10;;;0.95;;
29700;SDS011;57917;51.380;-0.176;2023-11-21T00:20:20;1.13;;;0.95;;
29700;SDS011;57917;51.380;-0.176;2023-11-21T00:26:08;1.13;;;1.00;;
29700;SDS011;57917;51.380;-0.176;2023-11-21T00:31:57;0.60;;;0.57;;
29700;SDS011;57917;51.380;-0.176;2023-11-21T00:37:48;3.35;;;1.70;;
29700;SDS011;57917;51.380;-0.176;2023-11-21T00:43:37;1.60;;;1.38;;
29700;SDS011;57917;51.380;-0.176;2023-11-21T00:49:25;2.05;;;1.50;;
29700;SDS011;57917;51.380;-0.176;2023-11-21T00:55:12;1.38;;;0.98;;
29700;SDS011;57917;51.380;-0.176;2023-11-21T01:00:59;5.97;;;1.55;;
29700;SDS011;57917;51.380;-0.176;2023-11-21T01:07:00;1.20;;;1.05;;
29700;SDS011;57917;51.380;-0.176;2023-11-21T01:12:49;1.30;;;0.88;;
29700;SDS011;57917;51.380;-0.176;2023-11-21T01:18:35;2.30;;;1.27;;
29700;SDS011;57917;51.380;-0.176;2023-11-21T01:24:23;1.48;;;1.23;;
29700;SDS011;57917;51.380;-0.176;2023-11-21T01:30:18;1.70;;;1.50;;
29700;SDS011;57917;51.380;-0.176;2023-11-21T01:36:06;4.65;;;1.17;;
29700;SDS011;57917;51.380;-0.176;2023-11-21T01:42:00;2.63;;;1.05;;
29700;SDS011;57917;51.380;-0.176;2023-11-21T01:47:47;2.15;;;1.05;;
29700;SDS011;57917;51.380;-0.176;2023-11-21T01:53:35;2.55;;;1.67;;
29700;SDS011;57917;51.380;-0.176;2023-11-21T01:59:23;1.63;;;1.52;;
29700;SDS011;57917;51.380;-0.176;2023-11-21T02:05:17;3.08;;;2.05;;
29700;SDS011;57917;51.380;-0.176;2023-11-21T02:11:05;1.45;;;1.10;;
29700;SDS011;57917;51.380;-0.176;2023-11-21T02:16:53;7.13;;;1.40;;
29700;SDS011;57917;51.380;-0.176;2023-11-21T02:22:41;2.25;;;1.27;;
29700;SDS011;57917;51.380;-0.176;2023-11-21T02:28:31;2.70;;;1.83;;
29700;SDS011;57917;51.380;-0.176;2023-11-21T02:34:23;3.30;;;1.45;;
29700;SDS011;57917;51.380;-0.176;2023-11-21T02:40:12;3.97;;;1.83;;
29700;SDS011;57917;51.380;-0.176;2023-11-21T02:45:59;3.70;;;2.00;;
29700;SDS011;57917;51.380;-0.176;2023-11-21T02:51:46;3.10;;;1.30;;
29700;SDS011;57917;51.380;-0.176;2023-11-21T02:57:33;3.13;;;1.80;;
29700;SDS011;57917;51.380;-0.176;2023-11-21T03:03:20;2.47;;;2.03;;
29700;SDS011;57917;51.380;-0.176;2023-11-21T03:09:07;1.75;;;1.27;;
29700;SDS011;57917;51.380;-0.176;2023-11-21T03:14:54;2.58;;;1.48;;
29700;SDS011;57917;51.380;-0.176;2023-11-21T03:20:43;2.00;;;1.20;;
29700;SDS011;57917;51.380;-0.176;2023-11-21T03:26:36;1.75;;;1.00;;
29700;SDS011;57917;51.380;-0.176;2023-11-21T03:32:24;1.23;;;1.10;;
29700;SDS011;57917;51.380;-0.176;2023-11-21T03:38:11;0.70;;;0.70;;
29700;SDS011;57917;51.380;-0.176;2023-11-21T03:43:59;0.38;;;0.38;;
29700;SDS011;57917;51.380;-0.176;2023-11-21T03:49:46;4.50;;;1.30;;
29700;SDS011;57917;51.380;-0.176;2023-11-21T03:55:35;0.45;;;0.45;;
29700;SDS011;57917;51.380;-0.176;2023-11-21T04:01:23;0.93;;;0.85;;
29700;SDS011;57917;51.380;-0.176;2023-11-21T04:07:10;1.48;;;0.60;;
29700;SDS011;57917;51.380;-0.176;2023-11-21T04:12:59;0.55;;;0.55;;
29700;SDS011;57917;51.380;-0.176;2023-11-21T04:18:47;1.02;;;0.73;;
29700;SDS011;57917;51.380;-0.176;2023-11-21T04:24:36;0.38;;;0.38;;
29700;SDS011;57917;51.380;-0.176;2023-11-21T04:30:23;0.28;;;0.28;;
29700;SDS011;57917;51.380;-0.176;2023-11-21T04:36:11;7.53;;;1.10;;
29700;SDS011;57917;51.380;-0.176;2023-11-21T04:41:58;0.30;;;0.30;;
29700;SDS011;57917;51.380;-0.176;2023-11-21T04:47:45;0.30;;;0.30;;
29700;SDS011;57917;51.380;-0.176;2023-11-21T04:53:33;1.67;;;0.57;;
29700;SDS011;57917;51.380;-0.176;2023-11-21T04:59:21;0.20;;;0.20;;
29700;SDS011;57917;51.380;-0.176;2023-11-21T05:05:15;0.30;;;0.30;;
29700;SDS011;57917;51.380;-0.176;2023-11-21T05:11:02;0.30;;;0.30;;
29700;SDS011;57917;51.380;-0.176;2023-11-21T05:16:50;0.30;;;0.22;;
29700;SDS011;57917;51.380;-0.176;2023-11-21T05:22:38;0.20;;;0.20;;
29700;SDS011;57917;51.380;-0.176;2023-11-21T05:28:25;0.40;;;0.40;;
29700;SDS011;57917;51.380;-0.176;2023-11-21T05:34:12;0.30;;;0.30;;
29700;SDS011;57917;51.380;-0.176;2023-11-21T05:40:07;0.30;;;0.30;;
29700;SDS011;57917;51.380;-0.176;2023-11-21T05:46:00;0.43;;;0.30;;
29700;SDS011;57917;51.380;-0.176;2023-11-21T05:51:50;0.63;;;0.63;;
29700;SDS011;57917;51.380;-0.176;2023-11-21T05:57:41;0.38;;;0.38;;
29700;SDS011;57917;51.380;-0.176;2023-11-21T06:03:32;0.70;;;0.70;;
29700;SDS011;57917;51.380;-0.176;2023-11-21T06:09:23;0.35;;;0.35;;
29700;SDS011;57917;51.380;-0.176;2023-11-21T06:15:14;0.52;;;0.52;;
29700;SDS011;57917;51.380;-0.176;2023-11-21T06:21:01;0.32;;;0.32;;
29700;SDS011;57917;51.380;-0.176;2023-11-21T06:26:48;0.30;;;0.30;;
29700;SDS011;57917;51.380;-0.176;2023-11-21T06:32:43;0.20;;;0.20;;
29700;SDS011;57917;51.380;-0.176;2023-11-21T06:38:55;0.30;;;0.30;;
29700;SDS011;57917;51.380;-0.176;2023-11-21T06:44:42;3.95;;;0.93;;
29700;SDS011;57917;51.380;-0.176;2023-11-21T06:50:30;0.22;;;0.22;;
29700;SDS011;57917;51.380;-0.176;2023-11-21T06:56:20;0.98;;;0.85;;
29700;SDS011;57917;51.380;-0.176;2023-11-21T07:02:15;1.50;;;0.93;;
29700;SDS011;57917;51.380;-0.176;2023-11-21T07:08:07;0.70;;;0.63;;
29700;SDS011;57917;51.380;-0.176;2023-11-21T07:13:58;1.17;;;0.88;;
29700;SDS011;57917;51.380;-0.176;2023-11-21T07:19:52;6.35;;;1.55;;
29700;SDS011;57917;51.380;-0.176;2023-11-21T07:25:51;0.63;;;0.60;;
29700;SDS011;57917;51.380;-0.176;2023-11-21T07:31:48;2.13;;;1.27;;
29700;SDS011;57917;51.380;-0.176;2023-11-21T07:37:48;5.13;;;1.65;;
29700;SDS011;57917;51.380;-0.176;2023-11-21T07:43:38;1.65;;;1.25;;
29700;SDS011;57917;51.380;-0.176;2023-11-21T07:49:33;1.73;;;1.23;;
29700;SDS011;57917;51.380;-0.176;2023-11-21T07:55:43;1.13;;;0.75;;
29700;SDS011;57917;51.380;-0.176;2023-11-21T08:01:31;3.38;;;1.92;;
29700;SDS011;57917;51.380;-0.176;2023-11-21T08:07:33;5.90;;;1.40;;
29700;SDS011;57917;51.380;-0.176;2023-11-21T08:13:46;3.17;;;1.52;;
29700;SDS011;57917;51.380;-0.176;2023-11-21T08:19:36;1.08;;;0.70;;
29700;SDS011;57917;51.380;-0.176;2023-11-21T08:25:29;7.47;;;1.35;;
29700;SDS011;57917;51.380;-0.176;2023-11-21T08:31:17;2.92;;;1.75;;
29700;SDS011;57917;51.380;-0.176;2023-11-21T08:37:30;2.55;;;1.20;;
29700;SDS011;57917;51.380;-0.176;2023-11-21T08:43:22;0.77;;;0.73;;
29700;SDS011;57917;51.380;-0.176;2023-11-21T08:49:15;0.85;;;0.68;;
29700;SDS011;57917;51.380;-0.176;2023-11-21T08:55:02;1.35;;;0.88;;
29700;SDS011;57917;51.380;-0.176;2023-11-21T09:00:54;1.83;;;0.82;;
29700;SDS011;57917;51.380;-0.176;2023-11-21T09:06:42;1.35;;;1.08;;
29700;SDS011;57917;51.380;-0.176;2023-11-21T09:12:34;2.70;;;1.05;;
29700;SDS011;57917;51.380;-0.176;2023-11-21T09:18:24;1.75;;;1.02;;
29700;SDS011;57917;51.380;-0.176;2023-11-21T09:24:11;1.88;;;0.95;;
29700;SDS011;57917;51.380;-0.176;2023-11-21T09:29:58;1.02;;;0.77;;
29700;SDS011;57917;51.380;-0.176;2023-11-21T09:35:46;1.27;;;0.73;;
29700;SDS011;57917;51.380;-0.176;2023-11-21T09:41:43;0.80;;;0.60;;
29700;SDS011;57917;51.380;-0.176;2023-11-21T09:47:37;1.33;;;1.02;;
29700;SDS011;57917;51.380;-0.176;2023-11-21T09:53:27;1.75;;;0.98;;
29700;SDS011;57917;51.380;-0.176;2023-11-21T09:59:22;0.68;;;0.60;;
29700;SDS011;57917;51.380;-0.176;2023-11-21T10:05:10;0.98;;;0.88;;
29700;SDS011;57917;51.380;-0.176;2023-11-21T10:10:59;1.65;;;0.82;;
29700;SDS011;57917;51.380;-0.176;2023-11-21T10:16:52;1.10;;;0.75;;
29700;SDS011;57917;51.380;-0.176;2023-11-21T10:22:40;1.52;;;1.02;;
29700;SDS011;57917;51.380;-0.176;2023-11-21T10:28:28;3.70;;;1.95;;
29700;SDS011;57917;51.380;-0.176;2023-11-21T10:34:19;0.57;;;0.57;;
29700;SDS011;57917;51.380;-0.176;2023-11-21T10:40:13;1.88;;;1.10;;
29700;SDS011;57917;51.380;-0.176;2023-11-21T10:45:59;3.08;;;1.38;;
29700;SDS011;57917;51.380;-0.176;2023-11-21T10:51:46;1.55;;;1.00;;
29700;SDS011;57917;51.380;-0.176;2023-11-21T10:57:41;2.05;;;1.02;;
29700;SDS011;57917;51.380;-0.176;2023-11-21T11:03:37;1.58;;;0.90;;
29700;SDS011;57917;51.380;-0.176;2023-11-21T11:09:25;0.95;;;0.70;;
29700;SDS011;57917;51.380;-0.176;2023-11-21T11:15:15;2.15;;;1.23;;
29700;SDS011;57917;51.380;-0.176;2023-11-21T11:27:23;1.20;;;0.95;;
29700;SDS011;57917;51.380;-0.176;2023-11-21T11:33:31;0.47;;;0.47;;
29700;SDS011;57917;51.380;-0.176;2023-11-21T11:45:21;0.60;;;0.57;;
29700;SDS011;57917;51.380;-0.176;2023-11-21T11:51:14;0.30;;;0.30;;
29700;SDS011;57917;51.380;-0.176;2023-11-21T11:57:03;0.63;;;0.63;;
29700;SDS011;57917;51.380;-0.176;2023-11-21T12:03:00;3.00;;;0.30;;
29700;SDS011;57917;51.380;-0.176;2023-11-21T12:08:52;0.47;;;0.47;;
29700;SDS011;57917;51.380;-0.176;2023-11-21T12:14:39;0.30;;;0.30;;
29700;SDS011;57917;51.380;-0.176;2023-11-21T12:20:34;0.20;;;0.20;;
29700;SDS011;57917;51.380;-0.176;2023-11-21T12:26:33;0.80;;;0.68;;
29700;SDS011;57917;51.380;-0.176;2023-11-21T12:32:20;0.40;;;0.40;;
29700;SDS011;57917;51.380;-0.176;2023-11-21T12:38:08;0.77;;;0.50;;
29700;SDS011;57917;51.380;-0.176;2023-11-21T12:43:57;0.50;;;0.50;;
29700;SDS011;57917;51.380;-0.176;2023-11-21T12:49:45;0.50;;;0.50;;
29700;SDS011;57917;51.380;-0.176;2023-11-21T12:55:33;0.43;;;0.30;;
29700;SDS011;57917;51.380;-0.176;2023-11-21T13:01:25;3.10;;;1.05;;
29700;SDS011;57917;51.380;-0.176;2023-11-21T13:07:22;3.30;;;0.63;;
29700;SDS011;57917;51.380;-0.176;2023-11-21T13:13:10;0.80;;;0.80;;
29700;SDS011;57917;51.380;-0.176;2023-11-21T13:19:10;0.38;;;0.38;;
29700;SDS011;57917;51.380;-0.176;2023-11-21T13:24:58;0.47;;;0.47;;
29700;SDS011;57917;51.380;-0.176;2023-11-21T13:30:45;11.93;;;2.22;;
29700;SDS011;57917;51.380;-0.176;2023-11-21T13:36:33;5.38;;;1.50;;
29700;SDS011;57917;51.380;-0.176;2023-11-21T13:42:23;0.55;;;0.55;;
29700;SDS011;57917;51.380;-0.176;2023-11-21T13:48:13;0.85;;;0.80;;
29700;SDS011;57917;51.380;-0.176;2023-11-21T13:54:09;0.25;;;0.25;;
29700;SDS011;57917;51.380;-0.176;2023-11-21T13:59:58;0.30;;;0.30;;
29700;SDS011;57917;51.380;-0.176;2023-11-21T14:05:46;0.30;;;0.28;;
29700;SDS011;57917;51.380;-0.176;2023-11-21T14:11:34;0.20;;;0.20;;
29700;SDS011;57917;51.380;-0.176;2023-11-21T14:17:33;2.28;;;0.80;;
29700;SDS011;57917;51.380;-0.176;2023-11-21T14:23:23;0.10;;;0.10;;
29700;SDS011;57917;51.380;-0.176;2023-11-21T14:29:13;1.85;;;0.85;;
29700;SDS011;57917;51.380;-0.176;2023-11-21T14:35:04;2.63;;;0.38;;
29700;SDS011;57917;51.380;-0.176;2023-11-21T14:40:51;1.65;;;1.08;;
29700;SDS011;57917;51.380;-0.176;2023-11-21T14:46:38;0.50;;;0.50;;
29700;SDS011;57917;51.380;-0.176;2023-11-21T14:52:32;0.50;;;0.50;;
29700;SDS011;57917;51.380;-0.176;2023-11-21T14:58:24;0.17;;;0.17;;
29700;SDS011;57917;51.380;-0.176;2023-11-21T15:04:14;0.40;;;0.40;;
29700;SDS011;57917;51.380;-0.176;2023-11-21T15:10:18;3.17;;;1.00;;
29700;SDS011;57917;51.380;-0.176;2023-11-21T15:16:15;3.00;;;2.72;;
29700;SDS011;57917;51.380;-0.176;2023-11-21T15:22:02;4.95;;;1.08;;
29700;SDS011;57917;51.380;-0.176;2023-11-21T15:27:49;0.50;;;0.50;;
29700;SDS011;57917;51.380;-0.176;2023-11-21T15:33:36;15.35;;;0.65;;
29700;SDS011;57917;51.380;-0.176;2023-11-21T15:39:25;0.77;;;0.57;;
29700;SDS011;57917;51.380;-0.176;2023-11-21T15:45:16;1.95;;;0.75;;
29700;SDS011;57917;51.380;-0.176;2023-11-21T15:51:09;0.40;;;0.40;;
29700;SDS011;57917;51.380;-0.176;2023-11-21T15:56:59;0.63;;;0.57;;
29700;SDS011;57917;51.380;-0.176;2023-11-21T16:02:53;0.80;;;0.80;;
29700;SDS011;57917;51.380;-0.176;2023-11-21T16:08:45;1.73;;;1.02;;
29700;SDS011;57917;51.380;-0.176;2023-11-21T16:15:01;10.63;;;1.20;;
29700;SDS011;57917;51.380;-0.176;2023-11-21T16:20:56;6.13;;;2.20;;
29700;SDS011;57917;51.380;-0.176;2023-11-21T16:26:45;10.90;;;3.30;;
29700;SDS011;57917;51.380;-0.176;2023-11-21T16:32:32;1.17;;;0.85;;
29700;SDS011;57917;51.380;-0.176;2023-11-21T16:38:22;5.53;;;1.90;;
29700;SDS011;57917;51.380;-0.176;2023-11-21T16:44:15;5.93;;;2.20;;
29700;SDS011;57917;51.380;-0.176;2023-11-21T16:50:05;4.75;;;1.73;;
29700;SDS011;57917;51.380;-0.176;2023-11-21T16:55:58;6.60;;;2.17;;
29700;SDS011;57917;51.380;-0.176;2023-11-21T17:01:47;6.85;;;2.40;;
29700;SDS011;57917;51.380;-0.176;2023-11-21T17:07:51;5.32;;;1.77;;
29700;SDS011;57917;51.380;-0.176;2023-11-21T17:13:41;10.88;;;3.83;;
29700;SDS011;57917;51.380;-0.176;2023-11-21T17:19:40;4.05;;;1.75;;
29700;SDS011;57917;51.380;-0.176;2023-11-21T17:25:32;5.67;;;2.10;;
29700;SDS011;57917;51.380;-0.176;2023-11-21T17:31:19;10.70;;;3.05;;
29700;SDS011;57917;51.380;-0.176;2023-11-21T17:37:09;8.00;;;2.78;;
29700;SDS011;57917;51.380;-0.176;2023-11-21T17:42:57;5.53;;;2.22;;
29700;SDS011;57917;51.380;-0.176;2023-11-21T17:48:47;8.00;;;3.30;;
29700;SDS011;57917;51.380;-0.176;2023-11-21T17:54:38;10.52;;;3.22;;
29700;SDS011;57917;51.380;-0.176;2023-11-21T18:00:29;8.60;;;1.95;;
29700;SDS011;57917;51.380;-0.176;2023-11-21T18:06:23;9.48;;;2.17;;
29700;SDS011;57917;51.380;-0.176;2023-11-21T18:12:15;9.65;;;1.80;;
29700;SDS011;57917;51.380;-0.176;2023-11-21T18:18:06;6.38;;;2.08;;
29700;SDS011;57917;51.380;-0.176;2023-11-21T18:23:56;5.20;;;1.80;;
29700;SDS011;57917;51.380;-0.176;2023-11-21T18:29:46;8.88;;;3.28;;
29700;SDS011;57917;51.380;-0.176;2023-11-21T18:35:35;32.17;;;3.40;;
29700;SDS011;57917;51.380;-0.176;2023-11-21T18:41:25;13.02;;;3.70;;
29700;SDS011;57917;51.380;-0.176;2023-11-21T18:47:17;19.63;;;4.10;;
29700;SDS011;57917;51.380;-0.176;2023-11-21T18:53:15;7.23;;;2.70;;
29700;SDS011;57917;51.380;-0.176;2023-11-21T18:59:13;12.55;;;3.42;;
29700;SDS011;57917;51.380;-0.176;2023-11-21T19:05:02;9.73;;;3.00;;
29700;SDS011;57917;51.380;-0.176;2023-11-21T19:10:52;7.47;;;2.35;;
29700;SDS011;57917;51.380;-0.176;2023-11-21T19:16:40;7.00;;;2.47;;
29700;SDS011;57917;51.380;-0.176;2023-11-21T19:22:35;26.13;;;4.05;;
29700;SDS011;57917;51.380;-0.176;2023-11-21T19:28:33;5.00;;;2.10;;
29700;SDS011;57917;51.380;-0.176;2023-11-21T19:34:20;5.75;;;2.10;;
29700;SDS011;57917;51.380;-0.176;2023-11-21T19:40:10;5.60;;;2.15;;
29700;SDS011;57917;51.380;-0.176;2023-11-21T19:46:01;8.00;;;2.63;;
29700;SDS011;57917;51.380;-0.176;2023-11-21T19:51:49;11.65;;;3.28;;
29700;SDS011;57917;51.380;-0.176;2023-11-21T19:57:36;22.92;;;6.20;;
29700;SDS011;57917;51.380;-0.176;2023-11-21T20:03:24;14.75;;;6.35;;
29700;SDS011;57917;51.380;-0.176;2023-11-21T20:09:11;15.43;;;5.82;;
29700;SDS011;57917;51.380;-0.176;2023-11-21T20:15:02;18.90;;;6.20;;
29700;SDS011;57917;51.380;-0.176;2023-11-21T20:20:51;23.63;;;11.02;;
29700;SDS011;57917;51.380;-0.176;2023-11-21T20:26:38;24.20;;;10.48;;
29700;SDS011;57917;51.380;-0.176;2023-11-21T20:32:29;18.75;;;7.15;;
29700;SDS011;57917;51.380;-0.176;2023-11-21T20:38:16;23.23;;;8.52;;
29700;SDS011;57917;51.380;-0.176;2023-11-21T20:44:06;16.38;;;6.47;;
29700;SDS011;57917;51.380;-0.176;2023-11-21T20:49:56;23.33;;;8.57;;
29700;SDS011;57917;51.380;-0.176;2023-11-21T20:55:49;23.60;;;8.50;;
29700;SDS011;57917;51.380;-0.176;2023-11-21T21:01:38;18.35;;;8.18;;
29700;SDS011;57917;51.380;-0.176;2023-11-21T21:07:27;19.33;;;10.18;;
29700;SDS011;57917;51.380;-0.176;2023-11-21T21:13:15;20.45;;;12.02;;
29700;SDS011;57917;51.380;-0.176;2023-11-21T21:19:05;23.10;;;12.27;;
29700;SDS011;57917;51.380;-0.176;2023-11-21T21:25:01;137.80;;;44.00;;
29700;SDS011;57917;51.380;-0.176;2023-11-21T21:30:49;150.73;;;47.45;;
29700;SDS011;57917;51.380;-0.176;2023-11-21T21:36:37;149.43;;;39.75;;
29700;SDS011;57917;51.380;-0.176;2023-11-21T21:42:26;151.75;;;42.42;;
29700;SDS011;57917;51.380;-0.176;2023-11-21T21:48:15;168.13;;;41.15;;
29700;SDS011;57917;51.380;-0.176;2023-11-21T21:54:02;144.13;;;37.90;;
29700;SDS011;57917;51.380;-0.176;2023-11-21T21:59:54;171.20;;;40.93;;
29700;SDS011;57917;51.380;-0.176;2023-11-21T22:06:01;122.05;;;37.55;;
29700;SDS011;57917;51.380;-0.176;2023-11-21T22:11:49;116.75;;;37.65;;
29700;SDS011;57917;51.380;-0.176;2023-11-21T22:17:42;118.40;;;36.92;;
29700;SDS011;57917;51.380;-0.176;2023-11-21T22:23:30;119.63;;;36.17;;
29700;SDS011;57917;51.380;-0.176;2023-11-21T22:29:19;123.75;;;38.97;;
29700;SDS011;57917;51.380;-0.176;2023-11-21T22:48:46;153.35;;;43.63;;
29700;SDS011;57917;51.380;-0.176;2023-11-21T22:54:38;113.75;;;33.97;;
29700;SDS011;57917;51.380;-0.176;2023-11-21T23:00:27;186.50;;;43.85;;
29700;SDS011;57917;51.380;-0.176;2023-11-21T23:06:26;195.13;;;47.22;;
29700;SDS011;57917;51.380;-0.176;2023-11-21T23:12:36;131.35;;;35.95;;
29700;SDS011;57917;51.380;-0.176;2023-11-21T23:18:29;118.43;;;35.50;;
29700;SDS011;57917;51.380;-0.176;2023-11-21T23:24:17;188.30;;;48.95;;
29700;SDS011;57917;51.380;-0.176;2023-11-21T23:30:13;144.75;;;45.50;;
29700;SDS011;57917;51.380;-0.176;2023-11-21T23:36:00;173.07;;;52.50;;
29700;SDS011;57917;51.380;-0.176;2023-11-21T23:41:47;38.88;;;20.77;;
